createdAt,value
2023-04-08T00:02:26.688Z,11.13
2023-04-08T00:04:53.783Z,11.95
2023-04-08T00:07:21.073Z,11.73
2023-04-08T00:09:49.403Z,10.95
2023-04-08T00:12:16.693Z,11.48
2023-04-08T00:14:43.717Z,11.18
2023-04-08T00:17:13.792Z,24.40
2023-04-08T00:19:41.934Z,10.88
2023-04-08T00:22:10.198Z,11.95
2023-04-08T00:24:40.972Z,11.23
2023-04-08T00:27:10.994Z,11.55
2023-04-08T00:29:39.114Z,11.63
2023-04-08T00:32:07.868Z,11.82
2023-04-08T00:34:42.117Z,11.88
2023-04-08T00:37:11.795Z,11.82
2023-04-08T00:39:39.921Z,11.57
2023-04-08T00:42:07.227Z,11.57
2023-04-08T00:44:34.387Z,10.40
2023-04-08T00:47:03.553Z,11.52
2023-04-08T00:49:36.074Z,11.40
2023-04-08T00:54:31.840Z,10.43
2023-04-08T00:57:01.229Z,10.52
2023-04-08T00:59:30.412Z,10.82
2023-04-08T01:02:22.556Z,12.80
2023-04-08T01:05:02.028Z,11.40
2023-04-08T01:07:36.910Z,11.73
2023-04-08T01:10:20.257Z,12.70
2023-04-08T01:12:57.576Z,12.55
2023-04-08T01:15:30.805Z,11.05
2023-04-08T01:18:00.849Z,11.82
2023-04-08T01:20:30.520Z,12.30
2023-04-08T01:23:09.124Z,12.52
2023-04-08T01:25:39.668Z,12.27
2023-04-08T01:28:15.855Z,12.73
2023-04-08T01:30:47.569Z,12.30
2023-04-08T01:33:17.965Z,11.87
2023-04-08T01:35:52.572Z,12.10
2023-04-08T01:38:24.599Z,12.57
2023-04-08T01:40:52.447Z,12.50
2023-04-08T01:43:22.151Z,12.32
2023-04-08T01:45:54.579Z,12.77
2023-04-08T01:50:56.935Z,12.48
2023-04-08T01:53:28.263Z,13.05
2023-04-08T01:56:12.783Z,12.88
2023-04-08T01:58:51.011Z,13.65
2023-04-08T02:01:22.844Z,12.25
2023-04-08T02:03:57.560Z,12.05
2023-04-08T02:06:27.813Z,12.48
2023-04-08T02:08:57.360Z,13.18
2023-04-08T02:11:28.475Z,12.35
2023-04-08T02:13:56.056Z,12.68
2023-04-08T02:16:50.651Z,13.02
2023-04-08T02:19:48.142Z,13.77
2023-04-08T02:22:41.394Z,12.93
2023-04-08T02:25:14.943Z,13.25
2023-04-08T02:27:46.606Z,12.50
2023-04-08T02:30:20.520Z,13.07
2023-04-08T02:32:48.932Z,12.63
2023-04-08T02:35:21.069Z,12.77
2023-04-08T02:38:37.864Z,11.70
2023-04-08T02:41:05.100Z,12.32
2023-04-08T02:43:34.538Z,12.90
2023-04-08T02:46:12.391Z,13.20
2023-04-08T02:48:40.421Z,10.95
2023-04-08T02:51:08.421Z,12.52
2023-04-08T02:53:35.391Z,13.23
2023-04-08T02:56:02.346Z,12.52
2023-04-08T02:58:29.476Z,12.68
2023-04-08T03:00:59.702Z,11.95
2023-04-08T03:03:52.582Z,13.15
2023-04-08T03:08:52.852Z,13.70
2023-04-08T03:11:21.498Z,12.82
2023-04-08T03:13:48.666Z,14.15
2023-04-08T03:16:16.662Z,13.70
2023-04-08T03:18:45.785Z,13.70
2023-04-08T03:21:13.828Z,14.93
2023-04-08T03:23:42.013Z,13.90
2023-04-08T03:26:10.104Z,12.60
2023-04-08T03:28:37.271Z,13.75
2023-04-08T03:31:05.455Z,14.93
2023-04-08T03:33:33.387Z,16.30
2023-04-08T03:36:00.324Z,15.82
2023-04-08T03:38:28.269Z,14.77
2023-04-08T03:40:55.228Z,15.80
2023-04-08T03:43:22.265Z,17.35
2023-04-08T03:45:50.225Z,15.60
2023-04-08T03:48:17.171Z,17.20
2023-04-08T03:50:44.185Z,18.65
2023-04-08T03:53:12.892Z,19.75
2023-04-08T03:55:40.940Z,19.48
2023-04-08T03:58:08.807Z,19.35
2023-04-08T04:00:37.189Z,19.67
2023-04-08T04:03:05.382Z,21.15
2023-04-08T04:05:33.448Z,21.77
2023-04-08T04:08:01.968Z,21.58
2023-04-08T04:10:31.866Z,21.65
2023-04-08T04:12:59.751Z,21.17
2023-04-08T04:15:28.935Z,20.17
2023-04-08T04:18:00.642Z,21.80
2023-04-08T04:20:32.608Z,22.83
2023-04-08T04:22:59.598Z,23.63
2023-04-08T04:25:27.630Z,23.90
2023-04-08T04:27:55.718Z,22.70
2023-04-08T04:30:27.436Z,23.13
2023-04-08T04:32:56.403Z,23.85
2023-04-08T04:35:23.506Z,21.83
2023-04-08T04:37:51.897Z,22.73
2023-04-08T04:40:19.811Z,22.42
2023-04-08T04:42:47.897Z,22.60
2023-04-08T04:45:16.828Z,24.67
2023-04-08T04:47:44.947Z,25.38
2023-04-08T04:50:14.920Z,23.05
2023-04-08T04:52:43.056Z,24.70
2023-04-08T04:55:13.382Z,23.48
2023-04-08T04:57:41.726Z,24.35
2023-04-08T05:00:13.034Z,25.17
2023-04-08T05:02:46.413Z,24.30
2023-04-08T05:05:15.658Z,24.40
2023-04-08T05:07:44.884Z,23.60
2023-04-08T05:10:13.997Z,22.77
2023-04-08T05:12:43.986Z,23.52
2023-04-08T05:15:14.494Z,23.88
2023-04-08T05:17:47.578Z,24.00
2023-04-08T05:20:17.096Z,23.80
2023-04-08T05:22:50.050Z,22.30
2023-04-08T05:25:20.098Z,23.33
2023-04-08T05:27:49.775Z,23.75
2023-04-08T05:30:25.845Z,22.10
2023-04-08T05:32:52.944Z,23.73
2023-04-08T05:35:20.014Z,22.80
2023-04-08T05:37:47.102Z,22.42
2023-04-08T05:40:14.137Z,23.80
2023-04-08T05:42:43.202Z,23.00
2023-04-08T05:45:10.769Z,23.58
2023-04-08T05:47:37.769Z,23.65
2023-04-08T05:50:05.303Z,22.42
2023-04-08T05:52:35.379Z,23.17
2023-04-08T05:55:02.215Z,23.67
2023-04-08T05:57:30.496Z,22.52
2023-04-08T05:59:58.487Z,23.45
2023-04-08T06:02:29.861Z,22.67
2023-04-08T06:04:57.923Z,22.15
2023-04-08T06:07:24.821Z,23.45
2023-04-08T06:09:51.856Z,23.63
2023-04-08T06:12:18.820Z,22.83
2023-04-08T06:14:47.894Z,21.52
2023-04-08T06:17:15.019Z,22.42
2023-04-08T06:19:43.560Z,20.63
2023-04-08T06:22:11.560Z,22.65
2023-04-08T06:24:38.933Z,22.80
2023-04-08T06:27:07.289Z,21.42
2023-04-08T06:29:35.511Z,20.63
2023-04-08T06:32:03.629Z,22.08
2023-04-08T06:34:31.843Z,23.65
2023-04-08T06:36:58.862Z,23.40
2023-04-08T06:39:25.923Z,21.45
2023-04-08T06:41:55.248Z,23.05
2023-04-08T06:44:47.962Z,21.15
2023-04-08T06:47:20.444Z,21.98
2023-04-08T06:49:47.500Z,23.48
2023-04-08T06:52:15.183Z,22.13
2023-04-08T06:54:42.772Z,21.27
2023-04-08T06:57:09.678Z,21.08
2023-04-08T06:59:36.660Z,19.88
2023-04-08T07:02:04.052Z,21.30
2023-04-08T07:04:31.570Z,20.83
2023-04-08T07:06:59.441Z,21.20
2023-04-08T07:09:26.545Z,20.10
2023-04-08T07:11:54.741Z,19.17
2023-04-08T07:14:21.772Z,18.13
2023-04-08T07:16:49.794Z,19.02
2023-04-08T07:19:16.700Z,18.88
2023-04-08T07:21:43.592Z,19.52
2023-04-08T07:24:16.675Z,20.40
2023-04-08T07:26:44.902Z,19.65
2023-04-08T07:29:13.992Z,45.25
2023-04-08T07:31:41.012Z,17.13
2023-04-08T07:43:05.901Z,14.80
2023-04-08T07:45:40.631Z,14.23
2023-04-08T07:48:07.785Z,16.10
2023-04-08T07:51:07.978Z,16.83
2023-04-08T07:53:27.785Z,23.98
2023-04-08T07:55:57.443Z,18.50
2023-04-08T07:58:25.424Z,17.30
2023-04-08T08:00:53.124Z,16.23
2023-04-08T08:03:20.450Z,17.48
2023-04-08T08:05:47.541Z,17.70
2023-04-08T08:08:15.600Z,15.63
2023-04-08T08:10:42.487Z,16.98
2023-04-08T08:13:15.118Z,15.43
2023-04-08T08:15:42.041Z,16.73
2023-04-08T08:18:09.047Z,15.98
2023-04-08T08:20:37.362Z,16.17
2023-04-08T08:23:05.572Z,14.52
2023-04-08T08:25:33.664Z,15.68
2023-04-08T08:28:01.588Z,15.35
2023-04-08T08:30:29.908Z,18.25
2023-04-08T08:33:01.743Z,17.23
2023-04-08T08:35:33.372Z,18.90
2023-04-08T08:38:02.172Z,18.83
2023-04-08T08:40:29.309Z,20.17
2023-04-08T08:42:59.352Z,19.38
2023-04-08T08:45:26.462Z,17.60
2023-04-08T08:47:53.533Z,18.15
2023-04-08T08:50:22.571Z,18.42
2023-04-08T08:52:52.964Z,70.80
2023-04-08T08:55:41.480Z,19.77
2023-04-08T08:58:08.082Z,17.30
2023-04-08T09:00:36.999Z,17.92
2023-04-08T09:03:18.549Z,16.85
2023-04-08T09:05:52.692Z,15.95
2023-04-08T09:08:30.566Z,15.82
2023-04-08T09:11:18.288Z,15.93
2023-04-08T09:13:46.418Z,16.52
2023-04-08T09:16:19.127Z,17.38
2023-04-08T09:18:50.235Z,17.15
2023-04-08T09:21:18.381Z,18.33
2023-04-08T09:23:48.719Z,18.15
2023-04-08T09:26:24.665Z,18.08
2023-04-08T09:31:58.166Z,16.92
2023-04-08T09:34:29.074Z,18.30
2023-04-08T09:36:57.277Z,17.92
2023-04-08T09:39:24.410Z,17.92
2023-04-08T09:41:58.497Z,18.33
2023-04-08T09:44:32.471Z,18.73
2023-04-08T09:47:25.896Z,19.08
2023-04-08T09:50:02.477Z,18.98
2023-04-08T09:52:39.832Z,17.33
2023-04-08T09:55:17.667Z,16.45
2023-04-08T09:57:58.623Z,17.00
2023-04-08T10:00:38.874Z,16.63
2023-04-08T10:03:24.611Z,17.23
2023-04-08T10:06:04.082Z,16.98
2023-04-08T10:09:03.416Z,19.55
2023-04-08T10:11:32.151Z,19.45
2023-04-08T10:14:01.507Z,20.55
2023-04-08T10:16:29.997Z,18.98
2023-04-08T10:18:59.374Z,19.02
2023-04-08T10:21:37.765Z,18.67
2023-04-08T10:24:12.002Z,19.33
2023-04-08T10:26:44.471Z,17.02
2023-04-08T10:29:18.111Z,17.35
2023-04-08T10:31:52.413Z,18.75
2023-04-08T10:34:26.842Z,15.70
2023-04-08T10:36:57.426Z,14.60
2023-04-08T10:39:27.498Z,13.23
2023-04-08T10:41:56.305Z,15.95
2023-04-08T10:44:26.852Z,14.13
2023-04-08T10:46:54.708Z,14.70
2023-04-08T10:49:22.934Z,15.85
2023-04-08T10:51:51.016Z,14.65
2023-04-08T10:54:19.609Z,16.10
2023-04-08T10:56:49.577Z,17.00
2023-04-08T10:59:28.399Z,16.60
2023-04-08T11:01:56.623Z,16.75
2023-04-08T11:04:25.859Z,16.50
2023-04-08T11:06:53.777Z,18.92
2023-04-08T11:09:22.022Z,17.00
2023-04-08T11:11:54.118Z,16.10
2023-04-08T11:14:22.439Z,15.18
2023-04-08T11:16:51.625Z,16.95
2023-04-08T11:19:20.295Z,17.63
2023-04-08T11:21:51.493Z,17.30
2023-04-08T11:24:19.611Z,14.70
2023-04-08T11:26:47.790Z,14.27
2023-04-08T11:29:23.869Z,13.70
2023-04-08T11:31:51.837Z,13.45
2023-04-08T11:34:25.709Z,12.15
2023-04-08T11:36:57.329Z,12.00
2023-04-08T11:39:26.382Z,13.43
2023-04-08T11:41:54.313Z,12.50
2023-04-08T11:44:33.288Z,12.30
2023-04-08T11:47:04.812Z,11.60
2023-04-08T11:49:45.069Z,9.73
2023-04-08T11:52:14.540Z,11.18
2023-04-08T11:54:43.317Z,12.70
2023-04-08T11:57:11.464Z,14.38
2023-04-08T11:59:38.927Z,15.95
2023-04-08T12:02:07.255Z,15.52
2023-04-08T12:04:40.011Z,16.48
2023-04-08T12:07:10.936Z,19.83
2023-04-08T12:09:37.969Z,18.17
2023-04-08T12:12:06.370Z,18.30
2023-04-08T12:14:33.611Z,18.00
2023-04-08T12:17:01.225Z,17.52
2023-04-08T12:19:44.648Z,16.95
2023-04-08T12:22:16.293Z,15.98
2023-04-08T12:24:44.550Z,15.57
2023-04-08T12:27:11.568Z,16.13
2023-04-08T12:29:38.506Z,15.73
2023-04-08T12:32:06.495Z,16.13
2023-04-08T12:34:37.300Z,16.60
2023-04-08T12:37:23.804Z,17.35
2023-04-08T12:39:57.757Z,17.73
2023-04-08T12:42:26.689Z,17.08
2023-04-08T12:44:54.727Z,16.42
2023-04-08T12:47:25.991Z,16.75
2023-04-08T12:49:55.328Z,15.63
2023-04-08T12:52:23.061Z,16.98
2023-04-08T12:54:51.995Z,15.27
2023-04-08T12:57:18.850Z,15.45
2023-04-08T12:59:45.823Z,17.42
2023-04-08T13:02:15.353Z,18.00
2023-04-08T13:04:42.706Z,16.83
2023-04-08T13:07:13.041Z,16.48
2023-04-08T13:10:14.359Z,15.75
2023-04-08T13:16:52.980Z,15.70
2023-04-08T13:23:22.135Z,15.40
2023-04-08T13:25:55.912Z,15.38
2023-04-08T13:28:22.841Z,15.38
2023-04-08T13:30:57.388Z,14.73
2023-04-08T13:33:25.449Z,15.60
2023-04-08T13:35:55.810Z,15.48
2023-04-08T13:38:23.768Z,15.57
2023-04-08T13:40:51.810Z,15.98
2023-04-08T13:43:19.420Z,15.73
2023-04-08T13:45:48.145Z,15.63
2023-04-08T13:48:16.902Z,15.95
2023-04-08T13:50:45.166Z,15.50
2023-04-08T13:53:20.184Z,16.27
2023-04-08T13:55:57.586Z,15.57
2023-04-08T13:58:26.551Z,16.05
2023-04-08T14:00:54.958Z,16.63
2023-04-08T14:03:23.061Z,16.25
2023-04-08T14:05:51.260Z,15.80
2023-04-08T14:08:25.063Z,16.25
2023-04-08T14:10:57.230Z,15.80
2023-04-08T14:13:24.359Z,15.05
2023-04-08T14:15:53.735Z,15.35
2023-04-08T14:18:21.058Z,15.05
2023-04-08T14:20:47.930Z,15.35
2023-04-08T14:23:16.911Z,14.35
2023-04-08T14:25:43.837Z,15.95
2023-04-08T14:28:12.272Z,15.65
2023-04-08T14:30:39.150Z,16.50
2023-04-08T14:33:06.227Z,16.80
2023-04-08T14:35:33.281Z,16.15
2023-04-08T14:38:00.678Z,16.98
2023-04-08T14:40:27.531Z,16.45
2023-04-08T14:42:55.390Z,16.33
2023-04-08T14:45:22.409Z,16.25
2023-04-08T14:47:53.485Z,16.40
2023-04-08T14:50:21.273Z,16.37
2023-04-08T14:52:50.119Z,16.27
2023-04-08T14:55:17.462Z,17.45
2023-04-08T14:57:50.862Z,17.05
2023-04-08T15:00:18.413Z,17.63
2023-04-08T15:02:46.350Z,17.70
2023-04-08T15:05:16.995Z,17.42
2023-04-08T15:07:47.578Z,18.30
2023-04-08T15:10:14.925Z,17.63
2023-04-08T15:12:42.978Z,19.35
2023-04-08T15:15:11.458Z,18.83
2023-04-08T15:17:38.399Z,18.25
2023-04-08T15:20:05.804Z,20.00
2023-04-08T15:22:36.548Z,19.83
2023-04-08T15:25:06.091Z,20.88
2023-04-08T15:27:37.600Z,20.58
2023-04-08T15:30:08.718Z,19.67
2023-04-08T15:32:37.572Z,20.13
2023-04-08T15:35:06.791Z,21.58
2023-04-08T15:37:33.868Z,22.20
2023-04-08T15:40:01.563Z,21.80
2023-04-08T15:42:28.662Z,23.45
2023-04-08T15:44:56.537Z,23.15
2023-04-08T15:47:41.729Z,23.42
2023-04-08T15:50:10.442Z,22.05
2023-04-08T15:52:37.433Z,22.50
2023-04-08T15:55:06.730Z,22.02
2023-04-08T15:57:38.885Z,23.17
2023-04-08T16:00:10.843Z,21.60
2023-04-08T16:02:42.443Z,22.33
2023-04-08T16:05:09.976Z,22.85
2023-04-08T16:07:37.513Z,22.08
2023-04-08T16:10:07.809Z,22.20
2023-04-08T16:12:38.119Z,21.85
2023-04-08T16:15:06.866Z,20.95
2023-04-08T16:17:35.370Z,21.33
2023-04-08T16:20:03.642Z,22.70
2023-04-08T16:22:30.563Z,21.67
2023-04-08T16:24:58.554Z,20.48
2023-04-08T16:27:26.932Z,21.42
2023-04-08T16:29:53.854Z,21.88
2023-04-08T16:32:22.061Z,20.80
2023-04-08T16:34:48.993Z,21.83
2023-04-08T16:37:16.074Z,22.38
2023-04-08T16:39:44.035Z,20.70
2023-04-08T16:42:10.992Z,20.17
2023-04-08T16:44:39.109Z,20.40
2023-04-08T16:47:08.121Z,20.85
2023-04-08T16:49:36.065Z,18.98
2023-04-08T16:52:04.103Z,19.55
2023-04-08T16:54:31.546Z,19.80
2023-04-08T16:57:02.082Z,19.67
2023-04-08T16:59:30.274Z,19.83
2023-04-08T17:01:57.394Z,19.60
2023-04-08T17:04:24.476Z,20.02
2023-04-08T17:06:52.469Z,19.58
2023-04-08T17:09:19.503Z,20.95
2023-04-08T17:11:46.443Z,20.30
2023-04-08T17:14:14.290Z,20.90
2023-04-08T17:16:43.093Z,20.33
2023-04-08T17:19:10.380Z,20.33
2023-04-08T17:21:42.083Z,21.08
2023-04-08T17:24:09.316Z,20.00
2023-04-08T17:26:37.639Z,21.23
2023-04-08T17:29:12.270Z,21.08
2023-04-08T17:31:40.577Z,20.77
2023-04-08T17:34:07.906Z,20.27
2023-04-08T17:36:37.922Z,19.42
2023-04-08T17:39:08.944Z,20.80
2023-04-08T17:41:41.019Z,20.73
2023-04-08T17:44:08.690Z,21.10
2023-04-08T17:50:06.871Z,20.92
2023-04-08T17:52:34.161Z,19.25
2023-04-08T17:55:01.208Z,21.30
2023-04-08T17:57:31.745Z,19.73
2023-04-08T18:00:00.370Z,19.42
2023-04-08T18:02:29.021Z,19.73
2023-04-08T18:04:56.093Z,20.25
2023-04-08T18:07:24.424Z,19.52
2023-04-08T18:09:51.297Z,19.63
2023-04-08T18:12:19.771Z,18.52
2023-04-08T18:14:46.801Z,18.42
2023-04-08T18:17:14.487Z,18.88
2023-04-08T18:19:41.335Z,18.63
2023-04-08T18:22:08.194Z,18.55
2023-04-08T18:24:37.300Z,19.23
2023-04-08T18:27:08.740Z,19.88
2023-04-08T18:29:38.311Z,17.50
2023-04-08T18:32:07.606Z,19.13
2023-04-08T18:34:34.880Z,19.05
2023-04-08T18:37:01.955Z,19.05
2023-04-08T18:39:28.858Z,19.45
2023-04-08T18:41:57.357Z,18.90
2023-04-08T18:44:27.374Z,19.92
2023-04-08T18:46:57.031Z,20.30
2023-04-08T18:49:24.989Z,21.02
2023-04-08T18:52:01.953Z,19.83
2023-04-08T18:54:31.823Z,20.08
2023-04-08T18:57:01.783Z,20.35
2023-04-08T18:59:32.597Z,20.67
2023-04-08T19:02:00.986Z,20.55
2023-04-08T19:04:29.054Z,20.92
2023-04-08T19:06:56.426Z,21.27
2023-04-08T19:09:26.673Z,21.98
2023-04-08T19:11:53.615Z,20.42
2023-04-08T19:14:21.628Z,20.65
2023-04-08T19:16:52.811Z,21.05
2023-04-08T19:19:20.716Z,23.42
2023-04-08T19:21:48.859Z,21.90
2023-04-08T19:24:16.870Z,22.05
2023-04-08T19:26:44.893Z,23.08
2023-04-08T19:29:13.336Z,23.27
2023-04-08T19:31:40.831Z,22.00
2023-04-08T19:34:09.850Z,22.00
2023-04-08T19:36:37.842Z,22.27
2023-04-08T19:39:08.544Z,25.02
2023-04-08T19:41:35.594Z,22.95
2023-04-08T19:44:04.264Z,24.27
2023-04-08T19:46:31.278Z,25.05
2023-04-08T19:48:59.128Z,24.95
2023-04-08T19:51:27.572Z,25.70
2023-04-08T19:53:58.052Z,25.80
2023-04-08T19:56:27.932Z,26.30
2023-04-08T19:58:56.031Z,27.17
2023-04-08T20:01:24.731Z,28.83
2023-04-08T20:03:52.987Z,25.83
2023-04-08T20:06:21.603Z,27.73
2023-04-08T20:08:51.604Z,36.08
2023-04-08T20:11:20.966Z,36.45
2023-04-08T20:13:49.370Z,37.58
2023-04-08T20:16:19.631Z,33.05
2023-04-08T20:18:49.814Z,33.88
2023-04-08T20:21:18.282Z,33.78
2023-04-08T20:23:46.044Z,32.35
2023-04-08T20:26:14.377Z,28.90
2023-04-08T20:28:44.560Z,27.98
2023-04-08T20:31:14.417Z,27.52
2023-04-08T20:33:45.474Z,28.75
2023-04-08T20:36:16.507Z,27.42
2023-04-08T20:38:44.498Z,27.23
2023-04-08T20:41:19.410Z,27.00
2023-04-08T20:43:51.785Z,27.63
2023-04-08T20:46:19.323Z,27.55
2023-04-08T20:48:47.161Z,26.98
2023-04-08T20:51:14.784Z,25.85
2023-04-08T20:53:45.709Z,26.20
2023-04-08T20:56:13.816Z,26.63
2023-04-08T20:58:40.758Z,27.40
2023-04-08T21:01:08.816Z,26.75
2023-04-08T21:03:35.989Z,26.17
2023-04-08T21:06:03.082Z,26.95
2023-04-08T21:08:29.998Z,26.90
2023-04-08T21:10:56.928Z,26.83
2023-04-08T21:13:24.914Z,26.58
2023-04-08T21:15:52.530Z,26.77
2023-04-08T21:18:19.481Z,27.23
2023-04-08T21:20:46.651Z,26.10
2023-04-08T21:23:15.615Z,27.60
2023-04-08T21:25:42.444Z,27.65
2023-04-08T21:28:09.332Z,27.38
2023-04-08T21:30:37.052Z,26.95
2023-04-08T21:33:04.114Z,26.88
2023-04-08T21:35:31.183Z,26.80
2023-04-08T21:37:58.133Z,27.50
2023-04-08T21:40:25.272Z,28.90
2023-04-08T21:42:52.429Z,26.33
2023-04-08T21:45:22.941Z,27.55
2023-04-08T21:47:53.321Z,28.08
2023-04-08T21:50:21.326Z,27.25
2023-04-08T21:52:50.408Z,27.05
2023-04-08T21:55:19.601Z,27.88
2023-04-08T21:57:48.974Z,28.15
2023-04-08T22:00:16.003Z,27.52
2023-04-08T22:02:42.953Z,27.02
2023-04-08T22:05:10.555Z,28.65
2023-04-08T22:07:37.963Z,28.08
2023-04-08T22:10:05.264Z,28.15
2023-04-08T22:12:34.280Z,28.33
2023-04-08T22:15:02.778Z,28.98
2023-04-08T22:17:29.670Z,29.15
2023-04-08T22:19:57.713Z,29.73
2023-04-08T22:22:25.693Z,29.63
2023-04-08T22:24:52.624Z,28.10
2023-04-08T22:27:19.895Z,29.40
2023-04-08T22:29:48.865Z,28.48
2023-04-08T22:32:15.825Z,28.35
2023-04-08T22:34:42.709Z,28.65
2023-04-08T22:37:09.597Z,29.70
2023-04-08T22:39:37.727Z,29.50
2023-04-08T22:42:04.741Z,28.90
2023-04-08T22:44:31.621Z,29.00
2023-04-08T22:46:59.503Z,28.50
2023-04-08T22:49:27.127Z,29.48
2023-04-08T22:51:54.110Z,29.27
2023-04-08T22:54:21.055Z,29.13
2023-04-08T22:56:52.165Z,29.95
2023-04-08T22:59:20.453Z,29.08
2023-04-08T23:01:47.506Z,29.13
2023-04-08T23:04:14.848Z,27.90
2023-04-08T23:06:53.356Z,29.65
2023-04-08T23:09:21.116Z,28.10
2023-04-08T23:11:48.249Z,29.20
2023-04-08T23:14:15.369Z,28.10
2023-04-08T23:16:43.162Z,29.27
2023-04-08T23:19:12.174Z,29.83
2023-04-08T23:21:39.317Z,29.65
2023-04-08T23:24:09.790Z,31.00
2023-04-08T23:26:38.045Z,29.52
2023-04-08T23:29:06.328Z,28.77
2023-04-08T23:31:34.845Z,29.00
2023-04-08T23:34:13.162Z,29.40
2023-04-08T23:36:40.957Z,28.52
2023-04-08T23:39:14.765Z,29.65
2023-04-08T23:41:41.668Z,29.52
2023-04-08T23:44:08.579Z,29.15
2023-04-08T23:46:36.545Z,29.65
2023-04-08T23:49:03.562Z,29.13
2023-04-08T23:51:31.428Z,30.05
2023-04-08T23:53:58.343Z,28.88
2023-04-08T23:56:26.189Z,27.67
2023-04-08T23:58:53.331Z,28.80
